sensor_id;sensor_type;location;lat;lon;timestamp;P1;durP1;ratioP1;P2;durP2;ratioP2
64619;SDS011;51029;51.058;13.826;2022-10-20T00:01:09;8.30;;;6.00;;
64619;SDS011;51029;51.058;13.826;2022-10-20T00:03:36;6.27;;;5.53;;
64619;SDS011;51029;51.058;13.826;2022-10-20T00:06:09;8.03;;;5.17;;
64619;SDS011;51029;51.058;13.826;2022-10-20T00:08:39;5.80;;;5.03;;
64619;SDS011;51029;51.058;13.826;2022-10-20T00:11:06;5.53;;;5.00;;
64619;SDS011;51029;51.058;13.826;2022-10-20T00:13:32;6.20;;;5.60;;
64619;SDS011;51029;51.058;13.826;2022-10-20T00:15:59;7.47;;;5.93;;
64619;SDS011;51029;51.058;13.826;2022-10-20T00:18:25;11.77;;;6.77;;
64619;SDS011;51029;51.058;13.826;2022-10-20T00:20:51;7.70;;;6.67;;
64619;SDS011;51029;51.058;13.826;2022-10-20T00:23:17;8.10;;;6.90;;
64619;SDS011;51029;51.058;13.826;2022-10-20T00:25:43;8.70;;;6.20;;
64619;SDS011;51029;51.058;13.826;2022-10-20T00:28:09;8.97;;;6.60;;
64619;SDS011;51029;51.058;13.826;2022-10-20T00:30:34;7.27;;;5.30;;
64619;SDS011;51029;51.058;13.826;2022-10-20T00:33:01;6.23;;;5.47;;
64619;SDS011;51029;51.058;13.826;2022-10-20T00:35:28;7.97;;;5.40;;
64619;SDS011;51029;51.058;13.826;2022-10-20T00:37:54;5.90;;;4.60;;
64619;SDS011;51029;51.058;13.826;2022-10-20T00:40:20;6.90;;;4.70;;
64619;SDS011;51029;51.058;13.826;2022-10-20T00:42:46;6.47;;;5.13;;
64619;SDS011;51029;51.058;13.826;2022-10-20T00:45:21;6.53;;;4.40;;
64619;SDS011;51029;51.058;13.826;2022-10-20T00:47:51;4.73;;;4.23;;
64619;SDS011;51029;51.058;13.826;2022-10-20T00:52:58;6.47;;;4.47;;
64619;SDS011;51029;51.058;13.826;2022-10-20T00:55:27;9.30;;;4.60;;
64619;SDS011;51029;51.058;13.826;2022-10-20T00:57:56;8.63;;;4.50;;
64619;SDS011;51029;51.058;13.826;2022-10-20T01:00:23;5.97;;;4.57;;
64619;SDS011;51029;51.058;13.826;2022-10-20T01:02:50;5.37;;;4.20;;
64619;SDS011;51029;51.058;13.826;2022-10-20T01:05:18;6.37;;;4.30;;
64619;SDS011;51029;51.058;13.826;2022-10-20T01:07:43;5.03;;;4.50;;
64619;SDS011;51029;51.058;13.826;2022-10-20T01:10:09;8.67;;;4.50;;
64619;SDS011;51029;51.058;13.826;2022-10-20T01:12:52;5.87;;;4.97;;
64619;SDS011;51029;51.058;13.826;2022-10-20T01:18:59;7.13;;;4.60;;
64619;SDS011;51029;51.058;13.826;2022-10-20T01:27:19;7.97;;;4.90;;
64619;SDS011;51029;51.058;13.826;2022-10-20T01:29:56;8.03;;;4.70;;
64619;SDS011;51029;51.058;13.826;2022-10-20T01:35:36;6.63;;;4.57;;
64619;SDS011;51029;51.058;13.826;2022-10-20T01:43:26;7.87;;;4.77;;
64619;SDS011;51029;51.058;13.826;2022-10-20T01:45:54;6.53;;;4.23;;
64619;SDS011;51029;51.058;13.826;2022-10-20T01:48:22;6.67;;;4.40;;
64619;SDS011;51029;51.058;13.826;2022-10-20T01:50:52;7.13;;;5.17;;
64619;SDS011;51029;51.058;13.826;2022-10-20T01:53:19;5.43;;;4.80;;
64619;SDS011;51029;51.058;13.826;2022-10-20T01:55:44;6.57;;;4.70;;
64619;SDS011;51029;51.058;13.826;2022-10-20T02:03:54;5.87;;;4.53;;
64619;SDS011;51029;51.058;13.826;2022-10-20T02:06:32;5.80;;;4.27;;
64619;SDS011;51029;51.058;13.826;2022-10-20T02:09:00;4.40;;;4.00;;
64619;SDS011;51029;51.058;13.826;2022-10-20T02:11:35;6.37;;;4.50;;
64619;SDS011;51029;51.058;13.826;2022-10-20T02:14:13;8.40;;;4.33;;
64619;SDS011;51029;51.058;13.826;2022-10-20T02:16:51;5.73;;;4.50;;
64619;SDS011;51029;51.058;13.826;2022-10-20T02:19:22;5.63;;;5.00;;
64619;SDS011;51029;51.058;13.826;2022-10-20T02:21:50;6.07;;;4.63;;
64619;SDS011;51029;51.058;13.826;2022-10-20T02:24:18;5.07;;;4.57;;
64619;SDS011;51029;51.058;13.826;2022-10-20T02:26:49;8.50;;;5.07;;
64619;SDS011;51029;51.058;13.826;2022-10-20T02:29:18;5.97;;;5.20;;
64619;SDS011;51029;51.058;13.826;2022-10-20T02:31:46;7.80;;;5.20;;
64619;SDS011;51029;51.058;13.826;2022-10-20T02:34:12;6.67;;;5.47;;
64619;SDS011;51029;51.058;13.826;2022-10-20T02:36:41;9.03;;;5.77;;
64619;SDS011;51029;51.058;13.826;2022-10-20T02:39:07;8.20;;;6.70;;
64619;SDS011;51029;51.058;13.826;2022-10-20T02:41:34;9.77;;;5.70;;
64619;SDS011;51029;51.058;13.826;2022-10-20T02:44:00;7.00;;;5.90;;
64619;SDS011;51029;51.058;13.826;2022-10-20T02:46:26;6.87;;;5.27;;
64619;SDS011;51029;51.058;13.826;2022-10-20T02:48:52;6.53;;;5.53;;
64619;SDS011;51029;51.058;13.826;2022-10-20T02:51:17;6.63;;;5.13;;
64619;SDS011;51029;51.058;13.826;2022-10-20T02:53:43;6.63;;;5.60;;
64619;SDS011;51029;51.058;13.826;2022-10-20T02:56:09;8.17;;;5.57;;
64619;SDS011;51029;51.058;13.826;2022-10-20T02:58:35;7.67;;;6.03;;
64619;SDS011;51029;51.058;13.826;2022-10-20T03:01:01;8.60;;;5.77;;
64619;SDS011;51029;51.058;13.826;2022-10-20T03:03:28;6.90;;;5.83;;
64619;SDS011;51029;51.058;13.826;2022-10-20T03:05:54;7.73;;;6.00;;
64619;SDS011;51029;51.058;13.826;2022-10-20T03:08:20;7.60;;;6.40;;
64619;SDS011;51029;51.058;13.826;2022-10-20T03:10:45;8.50;;;6.60;;
64619;SDS011;51029;51.058;13.826;2022-10-20T03:13:11;8.20;;;5.90;;
64619;SDS011;51029;51.058;13.826;2022-10-20T03:15:38;9.60;;;6.80;;
64619;SDS011;51029;51.058;13.826;2022-10-20T03:18:04;7.73;;;6.27;;
64619;SDS011;51029;51.058;13.826;2022-10-20T03:20:29;9.83;;;7.10;;
64619;SDS011;51029;51.058;13.826;2022-10-20T03:22:55;9.03;;;7.03;;
64619;SDS011;51029;51.058;13.826;2022-10-20T03:25:21;8.27;;;7.43;;
64619;SDS011;51029;51.058;13.826;2022-10-20T03:27:47;9.90;;;7.37;;
64619;SDS011;51029;51.058;13.826;2022-10-20T03:30:12;11.30;;;7.20;;
64619;SDS011;51029;51.058;13.826;2022-10-20T03:32:38;7.47;;;6.57;;
64619;SDS011;51029;51.058;13.826;2022-10-20T03:35:03;8.00;;;6.70;;
64619;SDS011;51029;51.058;13.826;2022-10-20T03:37:29;7.90;;;6.53;;
64619;SDS011;51029;51.058;13.826;2022-10-20T03:39:54;9.23;;;7.10;;
64619;SDS011;51029;51.058;13.826;2022-10-20T03:42:20;10.53;;;6.57;;
64619;SDS011;51029;51.058;13.826;2022-10-20T03:44:46;11.47;;;7.17;;
64619;SDS011;51029;51.058;13.826;2022-10-20T03:47:11;8.93;;;6.67;;
64619;SDS011;51029;51.058;13.826;2022-10-20T03:49:37;8.43;;;6.80;;
64619;SDS011;51029;51.058;13.826;2022-10-20T03:52:03;10.33;;;7.10;;
64619;SDS011;51029;51.058;13.826;2022-10-20T03:54:29;9.73;;;6.40;;
64619;SDS011;51029;51.058;13.826;2022-10-20T03:56:55;7.77;;;6.97;;
64619;SDS011;51029;51.058;13.826;2022-10-20T03:59:20;8.20;;;7.40;;
64619;SDS011;51029;51.058;13.826;2022-10-20T04:01:46;8.37;;;6.63;;
64619;SDS011;51029;51.058;13.826;2022-10-20T04:04:12;10.07;;;7.20;;
64619;SDS011;51029;51.058;13.826;2022-10-20T04:06:38;9.23;;;6.83;;
64619;SDS011;51029;51.058;13.826;2022-10-20T04:09:03;9.43;;;7.13;;
64619;SDS011;51029;51.058;13.826;2022-10-20T04:11:30;8.63;;;7.10;;
64619;SDS011;51029;51.058;13.826;2022-10-20T04:13:57;9.33;;;7.17;;
64619;SDS011;51029;51.058;13.826;2022-10-20T04:16:22;9.37;;;8.23;;
64619;SDS011;51029;51.058;13.826;2022-10-20T04:18:48;11.10;;;7.83;;
64619;SDS011;51029;51.058;13.826;2022-10-20T04:21:15;9.47;;;7.70;;
64619;SDS011;51029;51.058;13.826;2022-10-20T04:23:41;7.70;;;6.90;;
64619;SDS011;51029;51.058;13.826;2022-10-20T04:26:07;8.33;;;7.40;;
64619;SDS011;51029;51.058;13.826;2022-10-20T04:28:34;10.63;;;7.73;;
64619;SDS011;51029;51.058;13.826;2022-10-20T04:31:00;10.07;;;8.27;;
64619;SDS011;51029;51.058;13.826;2022-10-20T04:33:25;11.30;;;8.23;;
64619;SDS011;51029;51.058;13.826;2022-10-20T04:36:01;9.07;;;7.37;;
64619;SDS011;51029;51.058;13.826;2022-10-20T04:38:29;9.40;;;7.60;;
64619;SDS011;51029;51.058;13.826;2022-10-20T04:40:56;11.10;;;8.10;;
64619;SDS011;51029;51.058;13.826;2022-10-20T04:43:22;9.07;;;7.27;;
64619;SDS011;51029;51.058;13.826;2022-10-20T04:45:48;9.30;;;7.63;;
64619;SDS011;51029;51.058;13.826;2022-10-20T04:48:14;11.30;;;7.10;;
64619;SDS011;51029;51.058;13.826;2022-10-20T04:50:40;8.90;;;8.03;;
64619;SDS011;51029;51.058;13.826;2022-10-20T04:53:06;8.83;;;7.37;;
64619;SDS011;51029;51.058;13.826;2022-10-20T04:55:32;14.43;;;11.97;;
64619;SDS011;51029;51.058;13.826;2022-10-20T04:57:58;15.00;;;10.33;;
64619;SDS011;51029;51.058;13.826;2022-10-20T05:00:24;15.43;;;11.27;;
64619;SDS011;51029;51.058;13.826;2022-10-20T05:02:49;15.43;;;10.63;;
64619;SDS011;51029;51.058;13.826;2022-10-20T05:05:15;13.33;;;9.67;;
64619;SDS011;51029;51.058;13.826;2022-10-20T05:07:41;12.10;;;8.33;;
64619;SDS011;51029;51.058;13.826;2022-10-20T05:10:06;10.87;;;8.17;;
64619;SDS011;51029;51.058;13.826;2022-10-20T05:12:32;11.40;;;8.33;;
64619;SDS011;51029;51.058;13.826;2022-10-20T05:14:58;11.17;;;9.33;;
64619;SDS011;51029;51.058;13.826;2022-10-20T05:17:23;15.10;;;9.77;;
64619;SDS011;51029;51.058;13.826;2022-10-20T05:19:49;8.93;;;8.03;;
64619;SDS011;51029;51.058;13.826;2022-10-20T05:22:15;8.60;;;7.80;;
64619;SDS011;51029;51.058;13.826;2022-10-20T05:24:40;9.20;;;8.30;;
64619;SDS011;51029;51.058;13.826;2022-10-20T05:27:06;9.63;;;8.30;;
64619;SDS011;51029;51.058;13.826;2022-10-20T05:29:31;10.10;;;8.23;;
64619;SDS011;51029;51.058;13.826;2022-10-20T05:31:57;11.83;;;8.50;;
64619;SDS011;51029;51.058;13.826;2022-10-20T05:34:22;11.57;;;8.67;;
64619;SDS011;51029;51.058;13.826;2022-10-20T05:36:48;11.73;;;8.53;;
64619;SDS011;51029;51.058;13.826;2022-10-20T05:39:17;9.97;;;8.17;;
64619;SDS011;51029;51.058;13.826;2022-10-20T05:41:42;11.23;;;8.10;;
64619;SDS011;51029;51.058;13.826;2022-10-20T05:44:10;9.13;;;8.23;;
64619;SDS011;51029;51.058;13.826;2022-10-20T05:46:37;10.13;;;8.17;;
64619;SDS011;51029;51.058;13.826;2022-10-20T05:49:05;12.57;;;8.77;;
64619;SDS011;51029;51.058;13.826;2022-10-20T05:51:33;11.27;;;8.57;;
64619;SDS011;51029;51.058;13.826;2022-10-20T05:53:59;11.07;;;8.43;;
64619;SDS011;51029;51.058;13.826;2022-10-20T05:56:26;14.43;;;9.07;;
64619;SDS011;51029;51.058;13.826;2022-10-20T05:58:52;10.60;;;8.93;;
64619;SDS011;51029;51.058;13.826;2022-10-20T06:01:20;9.60;;;8.60;;
64619;SDS011;51029;51.058;13.826;2022-10-20T06:04:02;10.43;;;8.80;;
64619;SDS011;51029;51.058;13.826;2022-10-20T06:06:28;12.07;;;10.03;;
64619;SDS011;51029;51.058;13.826;2022-10-20T06:08:55;10.20;;;8.70;;
64619;SDS011;51029;51.058;13.826;2022-10-20T06:11:22;10.13;;;8.90;;
64619;SDS011;51029;51.058;13.826;2022-10-20T06:13:48;10.70;;;9.30;;
64619;SDS011;51029;51.058;13.826;2022-10-20T06:16:15;9.17;;;8.27;;
64619;SDS011;51029;51.058;13.826;2022-10-20T06:18:44;11.20;;;9.27;;
64619;SDS011;51029;51.058;13.826;2022-10-20T06:21:10;13.83;;;10.13;;
64619;SDS011;51029;51.058;13.826;2022-10-20T06:23:52;9.67;;;8.63;;
64619;SDS011;51029;51.058;13.826;2022-10-20T06:26:19;11.83;;;9.10;;
64619;SDS011;51029;51.058;13.826;2022-10-20T06:28:47;11.57;;;9.70;;
64619;SDS011;51029;51.058;13.826;2022-10-20T06:31:20;10.40;;;8.80;;
64619;SDS011;51029;51.058;13.826;2022-10-20T06:33:47;10.30;;;9.20;;
64619;SDS011;51029;51.058;13.826;2022-10-20T06:36:14;10.40;;;8.93;;
64619;SDS011;51029;51.058;13.826;2022-10-20T06:38:40;10.43;;;9.10;;
64619;SDS011;51029;51.058;13.826;2022-10-20T06:41:07;9.60;;;7.80;;
64619;SDS011;51029;51.058;13.826;2022-10-20T06:43:37;12.13;;;8.37;;
64619;SDS011;51029;51.058;13.826;2022-10-20T06:46:03;12.50;;;9.17;;
64619;SDS011;51029;51.058;13.826;2022-10-20T06:48:31;9.97;;;8.50;;
64619;SDS011;51029;51.058;13.826;2022-10-20T06:50:58;9.97;;;8.77;;
64619;SDS011;51029;51.058;13.826;2022-10-20T06:53:25;11.73;;;8.47;;
64619;SDS011;51029;51.058;13.826;2022-10-20T06:56:00;10.40;;;8.77;;
64619;SDS011;51029;51.058;13.826;2022-10-20T06:58:30;11.13;;;8.57;;
64619;SDS011;51029;51.058;13.826;2022-10-20T07:03:24;10.80;;;8.33;;
64619;SDS011;51029;51.058;13.826;2022-10-20T07:05:51;8.93;;;7.37;;
64619;SDS011;51029;51.058;13.826;2022-10-20T07:08:16;7.90;;;6.93;;
64619;SDS011;51029;51.058;13.826;2022-10-20T07:10:42;8.60;;;6.70;;
64619;SDS011;51029;51.058;13.826;2022-10-20T07:13:07;7.53;;;6.73;;
64619;SDS011;51029;51.058;13.826;2022-10-20T07:15:33;7.53;;;6.70;;
64619;SDS011;51029;51.058;13.826;2022-10-20T07:17:58;8.73;;;6.73;;
64619;SDS011;51029;51.058;13.826;2022-10-20T07:20:24;6.83;;;6.07;;
64619;SDS011;51029;51.058;13.826;2022-10-20T07:22:49;7.43;;;6.20;;
64619;SDS011;51029;51.058;13.826;2022-10-20T07:25:15;7.87;;;5.10;;
64619;SDS011;51029;51.058;13.826;2022-10-20T07:27:40;6.60;;;5.90;;
64619;SDS011;51029;51.058;13.826;2022-10-20T07:30:06;6.23;;;5.63;;
64619;SDS011;51029;51.058;13.826;2022-10-20T07:32:32;7.70;;;5.57;;
64619;SDS011;51029;51.058;13.826;2022-10-20T07:34:57;6.80;;;5.67;;
64619;SDS011;51029;51.058;13.826;2022-10-20T07:37:23;5.60;;;4.87;;
64619;SDS011;51029;51.058;13.826;2022-10-20T07:39:48;5.33;;;4.67;;
64619;SDS011;51029;51.058;13.826;2022-10-20T07:42:14;6.57;;;4.70;;
64619;SDS011;51029;51.058;13.826;2022-10-20T07:44:39;5.80;;;4.90;;
64619;SDS011;51029;51.058;13.826;2022-10-20T07:47:05;7.00;;;5.00;;
64619;SDS011;51029;51.058;13.826;2022-10-20T07:49:30;6.83;;;5.00;;
64619;SDS011;51029;51.058;13.826;2022-10-20T07:51:56;7.03;;;4.80;;
64619;SDS011;51029;51.058;13.826;2022-10-20T07:54:21;8.37;;;4.80;;
64619;SDS011;51029;51.058;13.826;2022-10-20T07:56:47;5.77;;;4.10;;
64619;SDS011;51029;51.058;13.826;2022-10-20T07:59:13;5.40;;;3.90;;
64619;SDS011;51029;51.058;13.826;2022-10-20T08:01:39;5.90;;;4.80;;
64619;SDS011;51029;51.058;13.826;2022-10-20T08:04:05;7.17;;;4.30;;
64619;SDS011;51029;51.058;13.826;2022-10-20T08:06:30;5.13;;;4.30;;
64619;SDS011;51029;51.058;13.826;2022-10-20T08:08:56;6.93;;;4.47;;
64619;SDS011;51029;51.058;13.826;2022-10-20T08:11:22;6.73;;;4.17;;
64619;SDS011;51029;51.058;13.826;2022-10-20T08:13:48;7.00;;;4.40;;
64619;SDS011;51029;51.058;13.826;2022-10-20T08:16:13;6.00;;;4.67;;
64619;SDS011;51029;51.058;13.826;2022-10-20T08:18:40;5.13;;;3.80;;
64619;SDS011;51029;51.058;13.826;2022-10-20T08:21:13;7.10;;;4.00;;
64619;SDS011;51029;51.058;13.826;2022-10-20T08:23:40;4.80;;;4.07;;
64619;SDS011;51029;51.058;13.826;2022-10-20T08:26:07;3.87;;;3.43;;
64619;SDS011;51029;51.058;13.826;2022-10-20T08:28:33;4.30;;;3.67;;
64619;SDS011;51029;51.058;13.826;2022-10-20T08:31:00;4.50;;;3.50;;
64619;SDS011;51029;51.058;13.826;2022-10-20T08:33:27;5.17;;;3.40;;
64619;SDS011;51029;51.058;13.826;2022-10-20T08:35:53;4.23;;;3.33;;
64619;SDS011;51029;51.058;13.826;2022-10-20T08:38:18;4.90;;;3.50;;
64619;SDS011;51029;51.058;13.826;2022-10-20T08:40:44;5.83;;;3.47;;
64619;SDS011;51029;51.058;13.826;2022-10-20T08:43:15;3.20;;;2.90;;
64619;SDS011;51029;51.058;13.826;2022-10-20T08:45:42;3.73;;;3.00;;
64619;SDS011;51029;51.058;13.826;2022-10-20T08:48:11;4.40;;;3.30;;
64619;SDS011;51029;51.058;13.826;2022-10-20T08:50:43;3.37;;;2.80;;
64619;SDS011;51029;51.058;13.826;2022-10-20T08:53:11;4.37;;;3.10;;
64619;SDS011;51029;51.058;13.826;2022-10-20T08:55:37;4.30;;;2.97;;
64619;SDS011;51029;51.058;13.826;2022-10-20T08:58:04;3.30;;;3.00;;
64619;SDS011;51029;51.058;13.826;2022-10-20T09:00:36;5.23;;;3.33;;
64619;SDS011;51029;51.058;13.826;2022-10-20T09:03:19;6.60;;;3.27;;
64619;SDS011;51029;51.058;13.826;2022-10-20T09:05:53;4.10;;;3.00;;
64619;SDS011;51029;51.058;13.826;2022-10-20T09:08:30;3.50;;;3.10;;
64619;SDS011;51029;51.058;13.826;2022-10-20T09:10:58;5.53;;;3.40;;
64619;SDS011;51029;51.058;13.826;2022-10-20T09:13:24;3.63;;;3.10;;
64619;SDS011;51029;51.058;13.826;2022-10-20T09:15:55;5.07;;;3.23;;
64619;SDS011;51029;51.058;13.826;2022-10-20T09:18:27;2.90;;;2.70;;
64619;SDS011;51029;51.058;13.826;2022-10-20T09:21:01;3.67;;;3.07;;
64619;SDS011;51029;51.058;13.826;2022-10-20T09:23:38;3.73;;;3.00;;
64619;SDS011;51029;51.058;13.826;2022-10-20T09:26:15;2.87;;;2.63;;
64619;SDS011;51029;51.058;13.826;2022-10-20T09:28:49;4.50;;;2.80;;
64619;SDS011;51029;51.058;13.826;2022-10-20T09:31:29;4.97;;;3.10;;
64619;SDS011;51029;51.058;13.826;2022-10-20T09:34:00;3.83;;;2.80;;
64619;SDS011;51029;51.058;13.826;2022-10-20T09:36:33;3.83;;;2.67;;
64619;SDS011;51029;51.058;13.826;2022-10-20T09:38:59;3.87;;;2.80;;
64619;SDS011;51029;51.058;13.826;2022-10-20T09:41:27;4.37;;;2.70;;
64619;SDS011;51029;51.058;13.826;2022-10-20T09:43:56;3.90;;;2.80;;
64619;SDS011;51029;51.058;13.826;2022-10-20T09:46:28;3.20;;;2.63;;
64619;SDS011;51029;51.058;13.826;2022-10-20T09:48:58;3.47;;;2.63;;
64619;SDS011;51029;51.058;13.826;2022-10-20T09:51:25;4.27;;;2.70;;
64619;SDS011;51029;51.058;13.826;2022-10-20T09:53:54;5.13;;;2.37;;
64619;SDS011;51029;51.058;13.826;2022-10-20T09:56:35;2.80;;;2.50;;
64619;SDS011;51029;51.058;13.826;2022-10-20T09:59:05;5.27;;;3.03;;
64619;SDS011;51029;51.058;13.826;2022-10-20T10:02:00;2.90;;;2.60;;
64619;SDS011;51029;51.058;13.826;2022-10-20T10:04:34;3.70;;;2.80;;
64619;SDS011;51029;51.058;13.826;2022-10-20T10:07:02;4.23;;;2.50;;
64619;SDS011;51029;51.058;13.826;2022-10-20T10:09:31;4.80;;;2.70;;
64619;SDS011;51029;51.058;13.826;2022-10-20T10:12:00;3.17;;;2.60;;
64619;SDS011;51029;51.058;13.826;2022-10-20T10:14:47;6.67;;;3.00;;
64619;SDS011;51029;51.058;13.826;2022-10-20T10:19:53;5.60;;;2.70;;
64619;SDS011;51029;51.058;13.826;2022-10-20T10:22:19;4.57;;;2.90;;
64619;SDS011;51029;51.058;13.826;2022-10-20T10:24:45;9.17;;;3.80;;
64619;SDS011;51029;51.058;13.826;2022-10-20T10:27:27;7.60;;;4.13;;
64619;SDS011;51029;51.058;13.826;2022-10-20T10:32:45;18.10;;;11.17;;
64619;SDS011;51029;51.058;13.826;2022-10-20T10:37:43;3.70;;;2.77;;
64619;SDS011;51029;51.058;13.826;2022-10-20T10:40:11;3.70;;;2.80;;
64619;SDS011;51029;51.058;13.826;2022-10-20T10:42:51;4.40;;;3.03;;
64619;SDS011;51029;51.058;13.826;2022-10-20T10:45:50;4.83;;;2.80;;
64619;SDS011;51029;51.058;13.826;2022-10-20T10:48:35;3.53;;;2.87;;
64619;SDS011;51029;51.058;13.826;2022-10-20T10:51:14;3.87;;;2.47;;
64619;SDS011;51029;51.058;13.826;2022-10-20T10:53:49;4.10;;;2.77;;
64619;SDS011;51029;51.058;13.826;2022-10-20T10:56:37;4.23;;;3.27;;
64619;SDS011;51029;51.058;13.826;2022-10-20T10:59:17;4.90;;;2.57;;
64619;SDS011;51029;51.058;13.826;2022-10-20T11:04:45;3.97;;;2.20;;
64619;SDS011;51029;51.058;13.826;2022-10-20T11:20:28;3.83;;;2.30;;
64619;SDS011;51029;51.058;13.826;2022-10-20T11:28:57;3.57;;;2.80;;
64619;SDS011;51029;51.058;13.826;2022-10-20T11:31:26;4.83;;;2.40;;
64619;SDS011;51029;51.058;13.826;2022-10-20T11:34:05;5.35;;;2.42;;
64619;SDS011;51029;51.058;13.826;2022-10-20T11:36:53;3.58;;;2.50;;
64619;SDS011;51029;51.058;13.826;2022-10-20T11:39:37;2.75;;;2.20;;
64619;SDS011;51029;51.058;13.826;2022-10-20T11:44:59;4.18;;;2.53;;
64619;SDS011;51029;51.058;13.826;2022-10-20T11:47:31;5.35;;;2.60;;
64619;SDS011;51029;51.058;13.826;2022-10-20T11:50:04;4.20;;;2.63;;
64619;SDS011;51029;51.058;13.826;2022-10-20T11:58:09;3.42;;;2.83;;
64619;SDS011;51029;51.058;13.826;2022-10-20T12:11:47;5.65;;;3.10;;
64619;SDS011;51029;51.058;13.826;2022-10-20T12:14:23;4.72;;;2.95;;
64619;SDS011;51029;51.058;13.826;2022-10-20T12:22:45;3.83;;;2.75;;
64619;SDS011;51029;51.058;13.826;2022-10-20T12:30:56;4.95;;;3.15;;
64619;SDS011;51029;51.058;13.826;2022-10-20T12:36:31;3.83;;;2.90;;
64619;SDS011;51029;51.058;13.826;2022-10-20T12:41:56;3.65;;;3.25;;
64619;SDS011;51029;51.058;13.826;2022-10-20T12:44:24;3.67;;;3.15;;
64619;SDS011;51029;51.058;13.826;2022-10-20T12:46:56;8.05;;;3.40;;
64619;SDS011;51029;51.058;13.826;2022-10-20T12:49:28;5.30;;;3.42;;
64619;SDS011;51029;51.058;13.826;2022-10-20T12:51:57;5.15;;;3.40;;
64619;SDS011;51029;51.058;13.826;2022-10-20T12:54:25;5.82;;;3.13;;
64619;SDS011;51029;51.058;13.826;2022-10-20T12:59:50;3.95;;;3.15;;
64619;SDS011;51029;51.058;13.826;2022-10-20T13:12:51;4.15;;;3.17;;
64619;SDS011;51029;51.058;13.826;2022-10-20T13:15:18;4.28;;;3.40;;
64619;SDS011;51029;51.058;13.826;2022-10-20T13:17:54;4.00;;;3.33;;
64619;SDS011;51029;51.058;13.826;2022-10-20T13:21:14;5.15;;;3.50;;
64619;SDS011;51029;51.058;13.826;2022-10-20T13:23:24;5.25;;;3.45;;
64619;SDS011;51029;51.058;13.826;2022-10-20T13:25:54;4.80;;;3.50;;
64619;SDS011;51029;51.058;13.826;2022-10-20T13:28:22;3.83;;;3.47;;
64619;SDS011;51029;51.058;13.826;2022-10-20T13:31:01;4.82;;;3.45;;
64619;SDS011;51029;51.058;13.826;2022-10-20T13:45:19;5.20;;;3.70;;
64619;SDS011;51029;51.058;13.826;2022-10-20T13:50:48;4.40;;;4.00;;
64619;SDS011;51029;51.058;13.826;2022-10-20T13:53:25;4.83;;;4.10;;
64619;SDS011;51029;51.058;13.826;2022-10-20T13:58:30;6.87;;;4.33;;
64619;SDS011;51029;51.058;13.826;2022-10-20T14:03:48;5.57;;;4.93;;
64619;SDS011;51029;51.058;13.826;2022-10-20T14:09:18;6.37;;;4.70;;
64619;SDS011;51029;51.058;13.826;2022-10-20T14:11:46;5.63;;;5.07;;
64619;SDS011;51029;51.058;13.826;2022-10-20T14:14:14;6.83;;;5.27;;
64619;SDS011;51029;51.058;13.826;2022-10-20T14:19:30;7.10;;;5.00;;
64619;SDS011;51029;51.058;13.826;2022-10-20T14:22:18;6.40;;;5.80;;
64619;SDS011;51029;51.058;13.826;2022-10-20T14:24:47;11.40;;;8.83;;
64619;SDS011;51029;51.058;13.826;2022-10-20T14:27:25;8.03;;;5.93;;
64619;SDS011;51029;51.058;13.826;2022-10-20T14:29:53;6.60;;;5.57;;
64619;SDS011;51029;51.058;13.826;2022-10-20T14:32:21;8.23;;;5.53;;
64619;SDS011;51029;51.058;13.826;2022-10-20T14:34:58;9.50;;;6.00;;
64619;SDS011;51029;51.058;13.826;2022-10-20T14:37:30;6.73;;;5.67;;
64619;SDS011;51029;51.058;13.826;2022-10-20T14:40:02;8.20;;;6.30;;
64619;SDS011;51029;51.058;13.826;2022-10-20T14:42:42;6.50;;;5.60;;
64619;SDS011;51029;51.058;13.826;2022-10-20T14:45:15;7.27;;;6.13;;
64619;SDS011;51029;51.058;13.826;2022-10-20T14:47:46;9.53;;;6.00;;
64619;SDS011;51029;51.058;13.826;2022-10-20T14:50:36;9.33;;;6.27;;
64619;SDS011;51029;51.058;13.826;2022-10-20T14:55:54;6.40;;;5.43;;
64619;SDS011;51029;51.058;13.826;2022-10-20T15:06:34;7.73;;;4.80;;
64619;SDS011;51029;51.058;13.826;2022-10-20T15:09:00;5.40;;;4.63;;
64619;SDS011;51029;51.058;13.826;2022-10-20T15:11:26;5.67;;;4.33;;
64619;SDS011;51029;51.058;13.826;2022-10-20T15:13:55;5.20;;;4.20;;
64619;SDS011;51029;51.058;13.826;2022-10-20T15:16:45;4.90;;;4.40;;
64619;SDS011;51029;51.058;13.826;2022-10-20T15:19:17;6.13;;;4.37;;
64619;SDS011;51029;51.058;13.826;2022-10-20T15:21:57;6.60;;;4.17;;
64619;SDS011;51029;51.058;13.826;2022-10-20T15:24:25;7.60;;;4.67;;
64619;SDS011;51029;51.058;13.826;2022-10-20T15:26:51;6.43;;;4.40;;
64619;SDS011;51029;51.058;13.826;2022-10-20T15:29:17;6.97;;;5.90;;
64619;SDS011;51029;51.058;13.826;2022-10-20T15:31:42;27.90;;;21.30;;
64619;SDS011;51029;51.058;13.826;2022-10-20T15:34:08;5.67;;;4.37;;
64619;SDS011;51029;51.058;13.826;2022-10-20T15:36:34;6.50;;;4.30;;
64619;SDS011;51029;51.058;13.826;2022-10-20T15:39:02;6.43;;;5.03;;
64619;SDS011;51029;51.058;13.826;2022-10-20T15:41:30;5.90;;;4.87;;
64619;SDS011;51029;51.058;13.826;2022-10-20T15:44:19;6.07;;;4.77;;
64619;SDS011;51029;51.058;13.826;2022-10-20T15:46:46;8.43;;;5.17;;
64619;SDS011;51029;51.058;13.826;2022-10-20T15:49:13;5.73;;;4.90;;
64619;SDS011;51029;51.058;13.826;2022-10-20T15:51:40;8.00;;;5.37;;
64619;SDS011;51029;51.058;13.826;2022-10-20T15:54:09;6.27;;;5.53;;
64619;SDS011;51029;51.058;13.826;2022-10-20T15:56:37;8.63;;;4.97;;
64619;SDS011;51029;51.058;13.826;2022-10-20T15:59:03;9.63;;;4.97;;
64619;SDS011;51029;51.058;13.826;2022-10-20T16:01:28;9.23;;;5.20;;
64619;SDS011;51029;51.058;13.826;2022-10-20T16:03:54;6.30;;;5.63;;
64619;SDS011;51029;51.058;13.826;2022-10-20T16:06:20;7.27;;;6.07;;
64619;SDS011;51029;51.058;13.826;2022-10-20T16:08:47;6.93;;;6.23;;
64619;SDS011;51029;51.058;13.826;2022-10-20T16:11:14;9.40;;;6.77;;
64619;SDS011;51029;51.058;13.826;2022-10-20T16:13:41;7.00;;;6.30;;
64619;SDS011;51029;51.058;13.826;2022-10-20T16:16:07;9.83;;;6.90;;
64619;SDS011;51029;51.058;13.826;2022-10-20T16:18:37;8.03;;;6.07;;
64619;SDS011;51029;51.058;13.826;2022-10-20T16:21:03;10.93;;;6.50;;
64619;SDS011;51029;51.058;13.826;2022-10-20T16:23:29;8.43;;;6.73;;
64619;SDS011;51029;51.058;13.826;2022-10-20T16:25:54;7.93;;;6.10;;
64619;SDS011;51029;51.058;13.826;2022-10-20T16:28:20;9.60;;;7.40;;
64619;SDS011;51029;51.058;13.826;2022-10-20T16:30:46;9.13;;;7.00;;
64619;SDS011;51029;51.058;13.826;2022-10-20T16:33:11;15.03;;;12.23;;
64619;SDS011;51029;51.058;13.826;2022-10-20T16:35:41;11.50;;;6.90;;
64619;SDS011;51029;51.058;13.826;2022-10-20T16:38:08;7.73;;;6.77;;
64619;SDS011;51029;51.058;13.826;2022-10-20T16:40:34;11.03;;;7.03;;
64619;SDS011;51029;51.058;13.826;2022-10-20T16:43:00;8.40;;;6.97;;
64619;SDS011;51029;51.058;13.826;2022-10-20T16:45:26;9.80;;;7.50;;
64619;SDS011;51029;51.058;13.826;2022-10-20T16:47:52;10.20;;;7.40;;
64619;SDS011;51029;51.058;13.826;2022-10-20T16:50:17;9.23;;;7.30;;
64619;SDS011;51029;51.058;13.826;2022-10-20T16:52:43;8.37;;;7.40;;
64619;SDS011;51029;51.058;13.826;2022-10-20T16:55:09;8.30;;;7.50;;
64619;SDS011;51029;51.058;13.826;2022-10-20T16:57:35;11.33;;;7.33;;
64619;SDS011;51029;51.058;13.826;2022-10-20T17:00:04;10.37;;;7.83;;
64619;SDS011;51029;51.058;13.826;2022-10-20T17:02:33;10.53;;;7.90;;
64619;SDS011;51029;51.058;13.826;2022-10-20T17:04:59;11.07;;;8.13;;
64619;SDS011;51029;51.058;13.826;2022-10-20T17:07:25;8.77;;;7.80;;